Rockwall's Hourly Summary for Monday, March 13, 2017
Hour Temp
(f)
RH
(%)
Solar Rad.
(MJ/m2)
Rainfall
(in)
Wind
(mph)
3/13/2017 12:00 AM 45 80 0 0 0.18
3/13/2017 1:00 AM 45 85 0 0 0
3/13/2017 2:00 AM 47 81 0 0 0.71
3/13/2017 3:00 AM 48 79 0 0 1.25
3/13/2017 4:00 AM 49 80 0 0 0.25
3/13/2017 5:00 AM 48 81 0 0.05 0.08
3/13/2017 6:00 AM 48 96 0 0.01 0.45
3/13/2017 7:00 AM 48 98 0 0 0.29
3/13/2017 8:00 AM 48 98 0 0 0.25
3/13/2017 9:00 AM 48 94 0.09 0 0.32
3/13/2017 10:00 AM 48 94 0.1 0.01 0.15
3/13/2017 11:00 AM 50 80 0.64 0 1.63
3/13/2017 12:00 PM 51 75 0.62 0 3.16
3/13/2017 1:00 PM 53 70 0.9 0 4.12
3/13/2017 2:00 PM 55 60 2.33 0 4.29
3/13/2017 3:00 PM 59 48 2.72 0 3.95
3/13/2017 4:00 PM 62 40 2.31 0 4.96
3/13/2017 5:00 PM 62 36 0.95 0 5.16
3/13/2017 6:00 PM 60 37 0.99 0 4.96
3/13/2017 7:00 PM 57 35 0.31 0 4.92
3/13/2017 8:00 PM 53 33 0.02 0 4.01
3/13/2017 9:00 PM 51 37 0 0 2.25
3/13/2017 10:00 PM 49 38 0 0 3.63
3/13/2017 11:00 PM 47 41 0 0 3.64
Data Summary 51 66 11.98 0.07 2.28